sensor_id;sensor_type;location;lat;lon;timestamp;temperature;humidity
52321;DHT22;38261;54.090;13.382;2023-08-31T00:00:44;14.60;99.90
52321;DHT22;38261;54.090;13.382;2023-08-31T00:02:06;14.60;99.90
52321;DHT22;38261;54.090;13.382;2023-08-31T00:03:30;14.60;99.90
52321;DHT22;38261;54.090;13.382;2023-08-31T00:04:52;14.60;99.90
52321;DHT22;38261;54.090;13.382;2023-08-31T00:06:17;14.60;99.90
52321;DHT22;38261;54.090;13.382;2023-08-31T00:07:40;14.60;99.90
52321;DHT22;38261;54.090;13.382;2023-08-31T00:09:03;14.60;99.90
52321;DHT22;38261;54.090;13.382;2023-08-31T00:10:27;14.60;99.90
52321;DHT22;38261;54.090;13.382;2023-08-31T00:11:51;14.60;99.90
52321;DHT22;38261;54.090;13.382;2023-08-31T00:13:14;14.60;99.90
52321;DHT22;38261;54.090;13.382;2023-08-31T00:14:36;14.60;99.90
52321;DHT22;38261;54.090;13.382;2023-08-31T00:15:59;14.70;99.90
52321;DHT22;38261;54.090;13.382;2023-08-31T00:17:21;14.60;99.90
52321;DHT22;38261;54.090;13.382;2023-08-31T00:18:44;14.70;99.90
52321;DHT22;38261;54.090;13.382;2023-08-31T00:20:07;14.70;99.90
52321;DHT22;38261;54.090;13.382;2023-08-31T00:21:33;14.70;99.90
52321;DHT22;38261;54.090;13.382;2023-08-31T00:22:56;14.70;99.90
52321;DHT22;38261;54.090;13.382;2023-08-31T00:24:18;14.70;99.90
52321;DHT22;38261;54.090;13.382;2023-08-31T00:25:43;14.70;99.90
52321;DHT22;38261;54.090;13.382;2023-08-31T00:27:05;14.70;99.90
52321;DHT22;38261;54.090;13.382;2023-08-31T00:28:28;14.70;99.90
52321;DHT22;38261;54.090;13.382;2023-08-31T00:29:51;14.70;99.90
52321;DHT22;38261;54.090;13.382;2023-08-31T00:31:13;14.70;99.90
52321;DHT22;38261;54.090;13.382;2023-08-31T00:32:35;14.70;99.90
52321;DHT22;38261;54.090;13.382;2023-08-31T00:33:57;14.70;99.90
52321;DHT22;38261;54.090;13.382;2023-08-31T00:35:19;14.70;99.90
52321;DHT22;38261;54.090;13.382;2023-08-31T00:36:42;14.70;99.90
52321;DHT22;38261;54.090;13.382;2023-08-31T00:38:04;14.70;99.90
52321;DHT22;38261;54.090;13.382;2023-08-31T00:39:26;14.70;99.90
52321;DHT22;38261;54.090;13.382;2023-08-31T00:40:49;14.70;99.90
52321;DHT22;38261;54.090;13.382;2023-08-31T00:42:13;14.70;99.90
52321;DHT22;38261;54.090;13.382;2023-08-31T00:43:36;14.70;99.90
52321;DHT22;38261;54.090;13.382;2023-08-31T00:44:58;14.70;99.90
52321;DHT22;38261;54.090;13.382;2023-08-31T00:46:21;14.70;99.90
52321;DHT22;38261;54.090;13.382;2023-08-31T00:47:43;14.80;99.90
52321;DHT22;38261;54.090;13.382;2023-08-31T00:49:05;14.80;99.90
52321;DHT22;38261;54.090;13.382;2023-08-31T00:50:28;14.80;99.90
52321;DHT22;38261;54.090;13.382;2023-08-31T00:51:50;14.80;99.90
52321;DHT22;38261;54.090;13.382;2023-08-31T00:53:13;14.80;99.90
52321;DHT22;38261;54.090;13.382;2023-08-31T00:54:37;14.80;99.90
52321;DHT22;38261;54.090;13.382;2023-08-31T00:55:59;14.80;99.90
52321;DHT22;38261;54.090;13.382;2023-08-31T00:57:21;14.80;99.90
52321;DHT22;38261;54.090;13.382;2023-08-31T00:58:43;14.80;99.90
52321;DHT22;38261;54.090;13.382;2023-08-31T01:00:06;14.80;99.90
52321;DHT22;38261;54.090;13.382;2023-08-31T01:01:50;14.90;99.90
52321;DHT22;38261;54.090;13.382;2023-08-31T01:04:58;14.90;99.90
52321;DHT22;38261;54.090;13.382;2023-08-31T01:08:14;14.90;99.90
52321;DHT22;38261;54.090;13.382;2023-08-31T01:09:55;14.90;99.90
52321;DHT22;38261;54.090;13.382;2023-08-31T01:11:31;14.90;99.90
52321;DHT22;38261;54.090;13.382;2023-08-31T01:13:03;14.90;99.90
52321;DHT22;38261;54.090;13.382;2023-08-31T01:14:54;14.80;99.90
52321;DHT22;38261;54.090;13.382;2023-08-31T01:16:23;14.80;99.90
52321;DHT22;38261;54.090;13.382;2023-08-31T01:17:54;14.80;99.90
52321;DHT22;38261;54.090;13.382;2023-08-31T01:22:39;14.80;99.90
52321;DHT22;38261;54.090;13.382;2023-08-31T01:24:04;14.70;99.90
52321;DHT22;38261;54.090;13.382;2023-08-31T01:25:27;14.70;99.90
52321;DHT22;38261;54.090;13.382;2023-08-31T01:26:51;14.70;99.90
52321;DHT22;38261;54.090;13.382;2023-08-31T01:28:14;14.60;99.90
52321;DHT22;38261;54.090;13.382;2023-08-31T01:29:36;14.60;99.90
52321;DHT22;38261;54.090;13.382;2023-08-31T01:31:04;14.50;99.90
52321;DHT22;38261;54.090;13.382;2023-08-31T01:32:27;14.50;99.90
52321;DHT22;38261;54.090;13.382;2023-08-31T01:33:50;14.50;99.90
52321;DHT22;38261;54.090;13.382;2023-08-31T01:35:16;14.40;99.90
52321;DHT22;38261;54.090;13.382;2023-08-31T01:36:43;14.40;99.90
52321;DHT22;38261;54.090;13.382;2023-08-31T01:38:10;14.40;99.90
52321;DHT22;38261;54.090;13.382;2023-08-31T01:39:37;14.40;99.90
52321;DHT22;38261;54.090;13.382;2023-08-31T01:41:06;14.40;99.90
52321;DHT22;38261;54.090;13.382;2023-08-31T01:42:30;14.50;99.90
52321;DHT22;38261;54.090;13.382;2023-08-31T01:43:53;14.50;99.90
52321;DHT22;38261;54.090;13.382;2023-08-31T01:45:19;14.50;99.90
52321;DHT22;38261;54.090;13.382;2023-08-31T01:46:46;14.50;99.90
52321;DHT22;38261;54.090;13.382;2023-08-31T01:48:08;14.50;99.90
52321;DHT22;38261;54.090;13.382;2023-08-31T01:49:38;14.50;99.90
52321;DHT22;38261;54.090;13.382;2023-08-31T01:51:01;14.50;99.90
52321;DHT22;38261;54.090;13.382;2023-08-31T01:52:23;14.60;99.90
52321;DHT22;38261;54.090;13.382;2023-08-31T01:53:45;14.60;99.90
52321;DHT22;38261;54.090;13.382;2023-08-31T01:55:08;14.60;99.90
52321;DHT22;38261;54.090;13.382;2023-08-31T01:56:30;14.60;99.90
52321;DHT22;38261;54.090;13.382;2023-08-31T01:57:52;14.50;99.90
52321;DHT22;38261;54.090;13.382;2023-08-31T01:59:14;14.50;99.90
52321;DHT22;38261;54.090;13.382;2023-08-31T02:00:36;14.50;99.90
52321;DHT22;38261;54.090;13.382;2023-08-31T02:02:00;14.50;99.90
52321;DHT22;38261;54.090;13.382;2023-08-31T02:03:23;14.50;99.90
52321;DHT22;38261;54.090;13.382;2023-08-31T02:04:46;14.50;99.90
52321;DHT22;38261;54.090;13.382;2023-08-31T02:06:08;14.40;99.90
52321;DHT22;38261;54.090;13.382;2023-08-31T02:07:30;14.40;99.90
52321;DHT22;38261;54.090;13.382;2023-08-31T02:08:52;14.40;99.90
52321;DHT22;38261;54.090;13.382;2023-08-31T02:10:15;14.40;99.90
52321;DHT22;38261;54.090;13.382;2023-08-31T02:11:37;14.40;99.90
52321;DHT22;38261;54.090;13.382;2023-08-31T02:13:00;14.30;99.90
52321;DHT22;38261;54.090;13.382;2023-08-31T02:14:22;14.30;99.90
52321;DHT22;38261;54.090;13.382;2023-08-31T02:15:45;14.30;99.90
52321;DHT22;38261;54.090;13.382;2023-08-31T02:17:07;14.30;99.90
52321;DHT22;38261;54.090;13.382;2023-08-31T02:18:30;14.30;99.90
52321;DHT22;38261;54.090;13.382;2023-08-31T02:19:52;14.30;99.90
52321;DHT22;38261;54.090;13.382;2023-08-31T02:21:14;14.30;99.90
52321;DHT22;38261;54.090;13.382;2023-08-31T02:22:36;14.20;99.90
52321;DHT22;38261;54.090;13.382;2023-08-31T02:23:58;14.20;99.90
52321;DHT22;38261;54.090;13.382;2023-08-31T02:25:21;14.20;99.90
52321;DHT22;38261;54.090;13.382;2023-08-31T02:26:43;14.20;99.90
52321;DHT22;38261;54.090;13.382;2023-08-31T02:28:05;14.20;99.90
52321;DHT22;38261;54.090;13.382;2023-08-31T02:29:27;14.20;99.90
52321;DHT22;38261;54.090;13.382;2023-08-31T02:30:58;14.20;99.90
52321;DHT22;38261;54.090;13.382;2023-08-31T02:32:21;14.20;99.90
52321;DHT22;38261;54.090;13.382;2023-08-31T02:33:43;14.20;99.90
52321;DHT22;38261;54.090;13.382;2023-08-31T02:35:05;14.20;99.90
52321;DHT22;38261;54.090;13.382;2023-08-31T02:36:29;14.30;99.90
52321;DHT22;38261;54.090;13.382;2023-08-31T02:37:51;14.30;99.90
52321;DHT22;38261;54.090;13.382;2023-08-31T02:39:14;14.30;99.90
52321;DHT22;38261;54.090;13.382;2023-08-31T02:40:36;14.30;99.90
52321;DHT22;38261;54.090;13.382;2023-08-31T02:41:58;14.30;99.90
52321;DHT22;38261;54.090;13.382;2023-08-31T02:43:20;14.40;99.90
52321;DHT22;38261;54.090;13.382;2023-08-31T02:44:42;14.30;99.90
52321;DHT22;38261;54.090;13.382;2023-08-31T02:46:05;14.40;99.90
52321;DHT22;38261;54.090;13.382;2023-08-31T02:47:27;14.40;99.90
52321;DHT22;38261;54.090;13.382;2023-08-31T02:48:50;14.40;99.90
52321;DHT22;38261;54.090;13.382;2023-08-31T02:50:12;14.50;99.90
52321;DHT22;38261;54.090;13.382;2023-08-31T02:51:34;14.50;99.90
52321;DHT22;38261;54.090;13.382;2023-08-31T02:52:56;14.50;99.90
52321;DHT22;38261;54.090;13.382;2023-08-31T02:54:19;14.50;99.90
52321;DHT22;38261;54.090;13.382;2023-08-31T02:55:42;14.50;99.90
52321;DHT22;38261;54.090;13.382;2023-08-31T02:57:04;14.50;99.90
52321;DHT22;38261;54.090;13.382;2023-08-31T02:58:27;14.50;99.90
52321;DHT22;38261;54.090;13.382;2023-08-31T02:59:52;14.50;99.90
52321;DHT22;38261;54.090;13.382;2023-08-31T03:01:14;14.50;99.90
52321;DHT22;38261;54.090;13.382;2023-08-31T03:02:36;14.60;99.90
52321;DHT22;38261;54.090;13.382;2023-08-31T03:03:59;14.60;99.90
52321;DHT22;38261;54.090;13.382;2023-08-31T03:05:21;14.60;99.90
52321;DHT22;38261;54.090;13.382;2023-08-31T03:06:43;14.60;99.90
52321;DHT22;38261;54.090;13.382;2023-08-31T03:08:05;14.60;99.90
52321;DHT22;38261;54.090;13.382;2023-08-31T03:09:28;14.60;99.90
52321;DHT22;38261;54.090;13.382;2023-08-31T03:10:50;14.60;99.90
52321;DHT22;38261;54.090;13.382;2023-08-31T03:12:12;14.60;99.90
52321;DHT22;38261;54.090;13.382;2023-08-31T03:13:34;14.60;99.90
52321;DHT22;38261;54.090;13.382;2023-08-31T03:14:56;14.60;99.90
52321;DHT22;38261;54.090;13.382;2023-08-31T03:16:18;14.60;99.90
52321;DHT22;38261;54.090;13.382;2023-08-31T03:17:41;14.60;99.90
52321;DHT22;38261;54.090;13.382;2023-08-31T03:19:03;14.60;99.90
52321;DHT22;38261;54.090;13.382;2023-08-31T03:20:25;14.60;99.90
52321;DHT22;38261;54.090;13.382;2023-08-31T03:21:48;14.60;99.90
52321;DHT22;38261;54.090;13.382;2023-08-31T03:23:10;14.60;99.90
52321;DHT22;38261;54.090;13.382;2023-08-31T03:24:33;14.60;99.90
52321;DHT22;38261;54.090;13.382;2023-08-31T03:25:55;14.60;99.90
52321;DHT22;38261;54.090;13.382;2023-08-31T03:27:17;14.50;99.90
52321;DHT22;38261;54.090;13.382;2023-08-31T03:28:41;14.50;99.90
52321;DHT22;38261;54.090;13.382;2023-08-31T03:30:03;14.50;99.90
52321;DHT22;38261;54.090;13.382;2023-08-31T03:31:26;14.50;99.90
52321;DHT22;38261;54.090;13.382;2023-08-31T03:32:48;14.50;99.90
52321;DHT22;38261;54.090;13.382;2023-08-31T03:34:10;14.50;99.90
52321;DHT22;38261;54.090;13.382;2023-08-31T03:35:33;14.50;99.90
52321;DHT22;38261;54.090;13.382;2023-08-31T03:36:55;14.50;99.90
52321;DHT22;38261;54.090;13.382;2023-08-31T03:38:17;14.50;99.90
52321;DHT22;38261;54.090;13.382;2023-08-31T03:39:39;14.50;99.90
52321;DHT22;38261;54.090;13.382;2023-08-31T03:41:03;14.50;99.90
52321;DHT22;38261;54.090;13.382;2023-08-31T03:42:25;14.50;99.90
52321;DHT22;38261;54.090;13.382;2023-08-31T03:43:48;14.50;99.90
52321;DHT22;38261;54.090;13.382;2023-08-31T03:45:10;14.50;99.90
52321;DHT22;38261;54.090;13.382;2023-08-31T03:46:33;14.50;99.90
52321;DHT22;38261;54.090;13.382;2023-08-31T03:47:55;14.50;99.90
52321;DHT22;38261;54.090;13.382;2023-08-31T03:49:17;14.50;99.90
52321;DHT22;38261;54.090;13.382;2023-08-31T03:50:39;14.50;99.90
52321;DHT22;38261;54.090;13.382;2023-08-31T03:52:01;14.50;99.90
52321;DHT22;38261;54.090;13.382;2023-08-31T03:53:24;14.50;99.90
52321;DHT22;38261;54.090;13.382;2023-08-31T03:54:46;14.50;99.90
52321;DHT22;38261;54.090;13.382;2023-08-31T03:56:08;14.50;99.90
52321;DHT22;38261;54.090;13.382;2023-08-31T03:57:30;14.50;99.90
52321;DHT22;38261;54.090;13.382;2023-08-31T03:58:53;14.50;99.90
52321;DHT22;38261;54.090;13.382;2023-08-31T04:00:15;14.50;99.90
52321;DHT22;38261;54.090;13.382;2023-08-31T04:01:38;14.50;99.90
52321;DHT22;38261;54.090;13.382;2023-08-31T04:03:00;14.50;99.90
52321;DHT22;38261;54.090;13.382;2023-08-31T04:04:24;14.50;99.90
52321;DHT22;38261;54.090;13.382;2023-08-31T04:05:46;14.50;99.90
52321;DHT22;38261;54.090;13.382;2023-08-31T04:07:08;14.50;99.90
52321;DHT22;38261;54.090;13.382;2023-08-31T04:08:31;14.50;99.90
52321;DHT22;38261;54.090;13.382;2023-08-31T04:09:53;14.40;99.90
52321;DHT22;38261;54.090;13.382;2023-08-31T04:11:15;14.50;99.90
52321;DHT22;38261;54.090;13.382;2023-08-31T04:12:37;14.50;99.90
52321;DHT22;38261;54.090;13.382;2023-08-31T04:14:00;14.50;99.90
52321;DHT22;38261;54.090;13.382;2023-08-31T04:15:23;14.50;99.90
52321;DHT22;38261;54.090;13.382;2023-08-31T04:16:45;14.50;99.90
52321;DHT22;38261;54.090;13.382;2023-08-31T04:18:11;14.50;99.90
52321;DHT22;38261;54.090;13.382;2023-08-31T04:19:33;14.50;99.90
52321;DHT22;38261;54.090;13.382;2023-08-31T04:20:56;14.50;99.90
52321;DHT22;38261;54.090;13.382;2023-08-31T04:22:21;14.50;99.90
52321;DHT22;38261;54.090;13.382;2023-08-31T04:23:43;14.50;99.90
52321;DHT22;38261;54.090;13.382;2023-08-31T04:25:05;14.40;99.90
52321;DHT22;38261;54.090;13.382;2023-08-31T04:26:27;14.40;99.90
52321;DHT22;38261;54.090;13.382;2023-08-31T04:27:50;14.40;99.90
52321;DHT22;38261;54.090;13.382;2023-08-31T04:29:12;14.50;99.90
52321;DHT22;38261;54.090;13.382;2023-08-31T04:30:34;14.50;99.90
52321;DHT22;38261;54.090;13.382;2023-08-31T04:31:56;14.50;99.90
52321;DHT22;38261;54.090;13.382;2023-08-31T04:33:20;14.50;99.90
52321;DHT22;38261;54.090;13.382;2023-08-31T04:34:42;14.50;99.90
52321;DHT22;38261;54.090;13.382;2023-08-31T04:36:05;14.50;99.90
52321;DHT22;38261;54.090;13.382;2023-08-31T04:37:27;14.50;99.90
52321;DHT22;38261;54.090;13.382;2023-08-31T04:38:49;14.50;99.90
52321;DHT22;38261;54.090;13.382;2023-08-31T04:40:12;14.50;99.90
52321;DHT22;38261;54.090;13.382;2023-08-31T04:41:34;14.50;99.90
52321;DHT22;38261;54.090;13.382;2023-08-31T04:42:56;14.50;99.90
52321;DHT22;38261;54.090;13.382;2023-08-31T04:44:19;14.50;99.90
52321;DHT22;38261;54.090;13.382;2023-08-31T04:45:41;14.40;99.90
52321;DHT22;38261;54.090;13.382;2023-08-31T04:47:03;14.40;99.90
52321;DHT22;38261;54.090;13.382;2023-08-31T04:48:26;14.40;99.90
52321;DHT22;38261;54.090;13.382;2023-08-31T04:49:49;14.40;99.90
52321;DHT22;38261;54.090;13.382;2023-08-31T04:51:34;14.40;99.90
52321;DHT22;38261;54.090;13.382;2023-08-31T04:52:57;14.40;99.90
52321;DHT22;38261;54.090;13.382;2023-08-31T04:54:20;14.40;99.90
52321;DHT22;38261;54.090;13.382;2023-08-31T04:55:42;14.40;99.90
52321;DHT22;38261;54.090;13.382;2023-08-31T04:57:04;14.50;99.90
52321;DHT22;38261;54.090;13.382;2023-08-31T04:58:29;14.50;99.90
52321;DHT22;38261;54.090;13.382;2023-08-31T04:59:51;14.50;99.90
52321;DHT22;38261;54.090;13.382;2023-08-31T05:01:14;14.50;99.90
52321;DHT22;38261;54.090;13.382;2023-08-31T05:02:36;14.50;99.90
52321;DHT22;38261;54.090;13.382;2023-08-31T05:03:58;14.50;99.90
52321;DHT22;38261;54.090;13.382;2023-08-31T05:05:21;14.50;99.90
52321;DHT22;38261;54.090;13.382;2023-08-31T05:06:43;14.50;99.90
52321;DHT22;38261;54.090;13.382;2023-08-31T05:08:05;14.60;99.90
52321;DHT22;38261;54.090;13.382;2023-08-31T05:09:27;14.60;99.90
52321;DHT22;38261;54.090;13.382;2023-08-31T05:10:54;14.60;99.90
52321;DHT22;38261;54.090;13.382;2023-08-31T05:12:16;14.60;99.90
52321;DHT22;38261;54.090;13.382;2023-08-31T05:13:39;14.60;99.90
52321;DHT22;38261;54.090;13.382;2023-08-31T05:15:04;14.70;99.90
52321;DHT22;38261;54.090;13.382;2023-08-31T05:16:26;14.70;99.90
52321;DHT22;38261;54.090;13.382;2023-08-31T05:17:49;14.70;99.90
52321;DHT22;38261;54.090;13.382;2023-08-31T05:19:11;14.70;99.90
52321;DHT22;38261;54.090;13.382;2023-08-31T05:20:33;14.70;99.90
52321;DHT22;38261;54.090;13.382;2023-08-31T05:21:55;14.70;99.90
52321;DHT22;38261;54.090;13.382;2023-08-31T05:23:17;14.70;99.90
52321;DHT22;38261;54.090;13.382;2023-08-31T05:24:39;14.70;99.90
52321;DHT22;38261;54.090;13.382;2023-08-31T05:26:02;14.70;99.90
52321;DHT22;38261;54.090;13.382;2023-08-31T05:27:24;14.70;99.90
52321;DHT22;38261;54.090;13.382;2023-08-31T05:28:46;14.80;99.90
52321;DHT22;38261;54.090;13.382;2023-08-31T05:30:09;14.80;99.90
52321;DHT22;38261;54.090;13.382;2023-08-31T05:31:31;14.80;99.90
52321;DHT22;38261;54.090;13.382;2023-08-31T05:32:53;14.80;99.90
52321;DHT22;38261;54.090;13.382;2023-08-31T05:34:17;14.90;99.90
52321;DHT22;38261;54.090;13.382;2023-08-31T05:35:42;14.90;99.90
52321;DHT22;38261;54.090;13.382;2023-08-31T05:37:05;14.90;99.90
52321;DHT22;38261;54.090;13.382;2023-08-31T05:38:27;15.00;99.90
52321;DHT22;38261;54.090;13.382;2023-08-31T05:39:49;15.00;99.90
52321;DHT22;38261;54.090;13.382;2023-08-31T05:41:11;15.10;99.90
52321;DHT22;38261;54.090;13.382;2023-08-31T05:42:34;15.10;99.90
52321;DHT22;38261;54.090;13.382;2023-08-31T05:43:56;15.10;99.90
52321;DHT22;38261;54.090;13.382;2023-08-31T05:45:18;15.20;99.90
52321;DHT22;38261;54.090;13.382;2023-08-31T05:46:40;15.20;99.90
52321;DHT22;38261;54.090;13.382;2023-08-31T05:48:03;15.20;99.90
52321;DHT22;38261;54.090;13.382;2023-08-31T05:49:25;15.20;99.90
52321;DHT22;38261;54.090;13.382;2023-08-31T05:50:47;15.20;99.90
52321;DHT22;38261;54.090;13.382;2023-08-31T05:52:10;15.20;99.90
52321;DHT22;38261;54.090;13.382;2023-08-31T05:53:32;15.20;99.90
52321;DHT22;38261;54.090;13.382;2023-08-31T05:54:55;15.20;99.90
52321;DHT22;38261;54.090;13.382;2023-08-31T05:56:19;15.20;99.90
52321;DHT22;38261;54.090;13.382;2023-08-31T05:57:41;15.20;99.90
52321;DHT22;38261;54.090;13.382;2023-08-31T05:59:03;15.30;99.90
52321;DHT22;38261;54.090;13.382;2023-08-31T06:00:25;15.30;99.90
52321;DHT22;38261;54.090;13.382;2023-08-31T06:01:47;15.30;99.90
52321;DHT22;38261;54.090;13.382;2023-08-31T06:03:10;15.30;99.90
52321;DHT22;38261;54.090;13.382;2023-08-31T06:04:34;15.30;99.90
52321;DHT22;38261;54.090;13.382;2023-08-31T06:05:58;15.30;99.90
52321;DHT22;38261;54.090;13.382;2023-08-31T06:07:21;15.40;99.90
52321;DHT22;38261;54.090;13.382;2023-08-31T06:08:43;15.50;99.90
52321;DHT22;38261;54.090;13.382;2023-08-31T06:10:06;15.50;99.90
52321;DHT22;38261;54.090;13.382;2023-08-31T06:11:28;15.50;99.90
52321;DHT22;38261;54.090;13.382;2023-08-31T06:12:50;15.50;99.90
52321;DHT22;38261;54.090;13.382;2023-08-31T06:14:14;15.50;99.90
52321;DHT22;38261;54.090;13.382;2023-08-31T06:15:36;15.60;99.90
52321;DHT22;38261;54.090;13.382;2023-08-31T06:16:59;15.60;99.90
52321;DHT22;38261;54.090;13.382;2023-08-31T06:18:21;15.70;99.90
52321;DHT22;38261;54.090;13.382;2023-08-31T06:19:43;15.70;99.90
52321;DHT22;38261;54.090;13.382;2023-08-31T06:21:06;15.70;99.90
52321;DHT22;38261;54.090;13.382;2023-08-31T06:22:28;15.80;99.90
52321;DHT22;38261;54.090;13.382;2023-08-31T06:23:50;15.80;99.90
52321;DHT22;38261;54.090;13.382;2023-08-31T06:25:12;15.90;99.90
52321;DHT22;38261;54.090;13.382;2023-08-31T06:26:37;15.90;99.90
52321;DHT22;38261;54.090;13.382;2023-08-31T06:27:59;16.00;99.90
52321;DHT22;38261;54.090;13.382;2023-08-31T06:29:21;16.00;99.90
52321;DHT22;38261;54.090;13.382;2023-08-31T06:30:43;16.00;99.90
52321;DHT22;38261;54.090;13.382;2023-08-31T06:32:09;16.10;99.90
52321;DHT22;38261;54.090;13.382;2023-08-31T06:33:31;16.10;99.90
52321;DHT22;38261;54.090;13.382;2023-08-31T06:34:53;16.10;99.90
52321;DHT22;38261;54.090;13.382;2023-08-31T06:36:15;16.10;99.90
52321;DHT22;38261;54.090;13.382;2023-08-31T06:37:37;16.10;99.90
52321;DHT22;38261;54.090;13.382;2023-08-31T06:38:59;16.10;99.90
52321;DHT22;38261;54.090;13.382;2023-08-31T06:40:22;16.10;99.90
52321;DHT22;38261;54.090;13.382;2023-08-31T06:41:44;16.10;99.90
52321;DHT22;38261;54.090;13.382;2023-08-31T06:43:06;16.10;99.90
52321;DHT22;38261;54.090;13.382;2023-08-31T06:44:28;16.10;99.90
52321;DHT22;38261;54.090;13.382;2023-08-31T06:45:51;16.10;99.90
52321;DHT22;38261;54.090;13.382;2023-08-31T06:47:13;16.10;99.90
52321;DHT22;38261;54.090;13.382;2023-08-31T06:48:38;16.10;99.90
52321;DHT22;38261;54.090;13.382;2023-08-31T06:50:00;16.10;99.90
52321;DHT22;38261;54.090;13.382;2023-08-31T06:51:23;16.10;99.90
52321;DHT22;38261;54.090;13.382;2023-08-31T06:52:46;16.20;99.90
52321;DHT22;38261;54.090;13.382;2023-08-31T06:54:08;16.20;99.90
52321;DHT22;38261;54.090;13.382;2023-08-31T06:55:31;16.30;99.90
52321;DHT22;38261;54.090;13.382;2023-08-31T06:56:55;16.30;99.90
52321;DHT22;38261;54.090;13.382;2023-08-31T06:58:17;16.30;99.90
52321;DHT22;38261;54.090;13.382;2023-08-31T06:59:39;16.40;99.90
52321;DHT22;38261;54.090;13.382;2023-08-31T07:01:05;16.40;99.90
52321;DHT22;38261;54.090;13.382;2023-08-31T07:02:27;16.50;99.90
52321;DHT22;38261;54.090;13.382;2023-08-31T07:03:50;16.60;99.90
52321;DHT22;38261;54.090;13.382;2023-08-31T07:05:13;16.60;99.90
52321;DHT22;38261;54.090;13.382;2023-08-31T07:06:36;16.60;99.90
52321;DHT22;38261;54.090;13.382;2023-08-31T07:07:58;16.60;99.90
52321;DHT22;38261;54.090;13.382;2023-08-31T07:09:20;16.60;99.90
52321;DHT22;38261;54.090;13.382;2023-08-31T07:10:42;16.60;99.90
52321;DHT22;38261;54.090;13.382;2023-08-31T07:12:05;16.70;99.90
52321;DHT22;38261;54.090;13.382;2023-08-31T07:13:27;16.70;99.90
52321;DHT22;38261;54.090;13.382;2023-08-31T07:14:49;16.70;99.90
52321;DHT22;38261;54.090;13.382;2023-08-31T07:16:13;16.60;99.90
52321;DHT22;38261;54.090;13.382;2023-08-31T07:17:35;16.60;99.90
52321;DHT22;38261;54.090;13.382;2023-08-31T07:18:58;16.50;99.90
52321;DHT22;38261;54.090;13.382;2023-08-31T07:20:20;16.40;99.90
52321;DHT22;38261;54.090;13.382;2023-08-31T07:21:42;16.40;99.90
52321;DHT22;38261;54.090;13.382;2023-08-31T07:23:04;16.40;99.90
52321;DHT22;38261;54.090;13.382;2023-08-31T07:24:26;16.30;99.90
52321;DHT22;38261;54.090;13.382;2023-08-31T07:25:49;16.30;99.90
52321;DHT22;38261;54.090;13.382;2023-08-31T07:27:11;16.30;99.90
52321;DHT22;38261;54.090;13.382;2023-08-31T07:28:33;16.30;99.90
52321;DHT22;38261;54.090;13.382;2023-08-31T07:29:55;16.30;99.90
52321;DHT22;38261;54.090;13.382;2023-08-31T07:31:17;16.20;99.90
52321;DHT22;38261;54.090;13.382;2023-08-31T07:32:40;16.20;99.90
52321;DHT22;38261;54.090;13.382;2023-08-31T07:34:02;16.30;99.90
52321;DHT22;38261;54.090;13.382;2023-08-31T07:35:25;16.30;99.90
52321;DHT22;38261;54.090;13.382;2023-08-31T07:36:48;16.20;99.90
52321;DHT22;38261;54.090;13.382;2023-08-31T07:38:10;16.20;99.90
52321;DHT22;38261;54.090;13.382;2023-08-31T07:39:32;16.20;99.90
52321;DHT22;38261;54.090;13.382;2023-08-31T07:40:54;16.20;99.90
52321;DHT22;38261;54.090;13.382;2023-08-31T07:42:16;16.10;99.90
52321;DHT22;38261;54.090;13.382;2023-08-31T07:43:38;16.10;99.90
52321;DHT22;38261;54.090;13.382;2023-08-31T07:45:15;16.10;99.90
52321;DHT22;38261;54.090;13.382;2023-08-31T07:46:37;16.10;99.90
52321;DHT22;38261;54.090;13.382;2023-08-31T07:47:59;16.10;99.90
52321;DHT22;38261;54.090;13.382;2023-08-31T07:49:22;16.10;99.90
52321;DHT22;38261;54.090;13.382;2023-08-31T07:50:44;16.10;99.90
52321;DHT22;38261;54.090;13.382;2023-08-31T07:52:06;16.10;99.90
52321;DHT22;38261;54.090;13.382;2023-08-31T07:53:29;16.20;99.90
52321;DHT22;38261;54.090;13.382;2023-08-31T07:54:51;16.30;99.90
52321;DHT22;38261;54.090;13.382;2023-08-31T07:56:13;16.30;99.90
52321;DHT22;38261;54.090;13.382;2023-08-31T07:57:36;16.40;99.90
52321;DHT22;38261;54.090;13.382;2023-08-31T07:58:58;16.50;99.90
52321;DHT22;38261;54.090;13.382;2023-08-31T08:00:21;16.60;99.90
52321;DHT22;38261;54.090;13.382;2023-08-31T08:01:43;16.70;99.90
52321;DHT22;38261;54.090;13.382;2023-08-31T08:03:05;16.80;99.90
52321;DHT22;38261;54.090;13.382;2023-08-31T08:04:27;16.90;99.90
52321;DHT22;38261;54.090;13.382;2023-08-31T08:05:51;17.10;99.90
52321;DHT22;38261;54.090;13.382;2023-08-31T08:07:14;17.30;99.90
52321;DHT22;38261;54.090;13.382;2023-08-31T08:08:36;17.40;99.90
52321;DHT22;38261;54.090;13.382;2023-08-31T08:09:59;17.50;99.90
52321;DHT22;38261;54.090;13.382;2023-08-31T08:11:22;17.70;99.90
52321;DHT22;38261;54.090;13.382;2023-08-31T08:12:44;17.80;99.90
52321;DHT22;38261;54.090;13.382;2023-08-31T08:14:08;18.00;99.90
52321;DHT22;38261;54.090;13.382;2023-08-31T08:15:31;18.10;99.90
52321;DHT22;38261;54.090;13.382;2023-08-31T08:16:53;18.30;99.90
52321;DHT22;38261;54.090;13.382;2023-08-31T08:18:15;18.40;99.90
52321;DHT22;38261;54.090;13.382;2023-08-31T08:19:37;18.50;99.90
52321;DHT22;38261;54.090;13.382;2023-08-31T08:20:59;18.60;99.90
52321;DHT22;38261;54.090;13.382;2023-08-31T08:22:21;18.80;99.90
52321;DHT22;38261;54.090;13.382;2023-08-31T08:23:43;18.80;99.90
52321;DHT22;38261;54.090;13.382;2023-08-31T08:25:07;18.80;99.90
52321;DHT22;38261;54.090;13.382;2023-08-31T08:26:29;18.80;99.90
52321;DHT22;38261;54.090;13.382;2023-08-31T08:27:51;18.80;99.90
52321;DHT22;38261;54.090;13.382;2023-08-31T08:29:13;19.00;99.90
52321;DHT22;38261;54.090;13.382;2023-08-31T08:30:36;19.20;99.90
52321;DHT22;38261;54.090;13.382;2023-08-31T08:31:58;19.40;99.90
52321;DHT22;38261;54.090;13.382;2023-08-31T08:33:20;19.50;99.90
52321;DHT22;38261;54.090;13.382;2023-08-31T08:34:42;19.70;99.90
52321;DHT22;38261;54.090;13.382;2023-08-31T08:36:04;19.80;99.90
52321;DHT22;38261;54.090;13.382;2023-08-31T08:37:27;19.70;99.90
52321;DHT22;38261;54.090;13.382;2023-08-31T08:38:51;19.70;99.90
52321;DHT22;38261;54.090;13.382;2023-08-31T08:40:13;19.60;99.90
52321;DHT22;38261;54.090;13.382;2023-08-31T08:41:35;19.60;99.90
52321;DHT22;38261;54.090;13.382;2023-08-31T08:43:00;19.50;99.90